Station: St Lawrence  

  Atmospheric Gas Attenuation - ITU Rec 676-11   ----------------- dB/100km -----------------
Date Time Temp RH % AH g/m3 Dew Point Wind Direction Speed kph Gust kph Barometer mB Rainfall Since 9am 24GHz 47GHz 76GHz 122GHz 134GHz 241GHz
08/05 12:40 23.8 20 4.3 -0.5 15 20 1018.1 0 10.2 17.7 21.4 55.4 41.0 138.1
08/05 12:30 23.8 20 4.3 -0.5 20 30 1018.4 0 10.2 17.7 21.4 55.4 41.0 138.1
08/05 12:20 23.6 20 4.25 -0.6 19 28 1018.6 0 10.1 17.7 21.3 55.1 40.6 136.7
08/05 12:10 23 20 4.11 -1.1 20 28 1018.7 0 9.8 17.6 21.1 54.4 39.5 132.8
08/05 12:00 22.9 20 4.09 -1.2 20 32 1018.9 0 9.8 17.6 21.0 54.3 39.4 132.3
08/05 11:50 22.7 20 4.04 -1.4 19 26 1019.1 0 9.7 17.6 20.9 54.1 39.0 130.9
08/05 11:40 22.7 20 4.04 -1.4 22 32 1019.4 0 9.7 17.6 21.0 54.1 39.0 130.9
08/05 11:30 22.5 22 4.39 -0.3 20 35 1019.7 0 10.4 18.1 22.1 57.1 42.6 143.6
08/05 11:20 22.6 22 4.42 -0.2 17 24 1019.7 0 10.5 18.1 22.1 57.2 42.9 144.5
08/05 11:10 22 22 4.27 -0.7 13 15 1019.9 0 10.2 18.0 21.8 56.4 41.7 140.2
08/05 11:00 21.8 23 4.41 -0.2 20 32 1020.3 0 10.5 18.3 22.3 57.7 43.2 145.6
08/05 10:50 21.6 23 4.36 -0.4 17 22 1020.2 0 10.4 18.2 22.2 57.5 42.8 144.1
08/05 10:40 21.6 23 4.36 -0.4 17 22 1020.3 0 10.4 18.2 22.2 57.5 42.8 144.1
08/05 10:30 20.6 23 4.12 -1.2 24 32 1020.5 0 9.9 18.1 21.8 56.2 40.9 137.2
08/05 10:20 20.8 24 4.35 -0.5 28 35 1020.5 0 10.4 18.4 22.4 57.9 43.1 145.2
08/05 10:10 20.5 23 4.09 -1.3 26 32 1020.7 0 9.8 18.1 21.7 56.0 40.6 136.3
08/05 10:00 20.4 28 4.95 1.3 22 33 1020.8 0 11.6 19.2 24.4 63.3 49.6 168.0
08/05 09:50 20.4 29 5.13 1.8 15 22 1020.8 0 12.0 19.5 25.0 64.9 51.5 174.7
08/05 09:40 20.2 29 5.07 1.6 17 26 1020.8 0 11.9 19.4 24.9 64.5 51.0 172.9
08/05 09:30 19.6 31 5.23 2 17 30 1020.9 0 12.2 19.8 25.6 66.4 53.1 180.2
08/05 09:20 19.8 33 5.64 3.1 17 20 1020.8 0 13.1 20.3 26.8 69.8 57.4 195.4
08/05 09:10 19.6 37 6.25 4.5 20 28 1020.8 0 14.4 21.2 29.0 75.5 64.3 219.7
08/05 09:00 19.1 39 6.39 4.8 20 37 1020.7 0 14.7 21.5 29.6 77.2 66.3 226.6
08/05 08:50 18.9 42 6.8 5.7 22 28 1020.6 0 15.6 22.1 31.1 81.2 71.2 243.7
08/05 08:40 18.7 44 7.04 6.2 20 26 1020.6 0 16.1 22.5 32.0 83.7 74.2 254.1
08/05 08:30 18.5 46 7.28 6.7 20 37 1020.6 0 16.6 22.9 33.0 86.2 77.2 264.7
08/05 08:20 18.1 48 7.42 6.9 22 30 1020.6 0 16.9 23.2 33.6 88.0 79.3 271.9
08/05 08:10 17.5 51 7.6 7.3 20 28 1020.6 0 17.3 23.6 34.5 90.4 82.0 281.5
08/05 08:00 17.4 53 7.85 7.7 15 24 1020.7 0 17.8 24.0 35.5 93.0 85.2 292.6
08/05 07:50 17.3 52 7.66 7.4 15 17 1020.5 0 17.4 23.7 34.9 91.2 83.0 284.8
08/05 07:40 17.3 52 7.66 7.4 13 15 1020.4 0 17.4 23.7 34.8 91.2 83.0 284.8
08/05 07:30 17.3 52 7.66 7.4 13 20 1020.4 0 17.4 23.7 34.8 91.2 83.0 284.8
08/05 07:20 17.3 52 7.66 7.4 13 19 1020.1 0 17.4 23.7 34.8 91.1 82.9 284.7
08/05 07:10 17.3 51 7.51 7.1 17 19 1019.9 0 17.1 23.5 34.3 89.6 81.1 278.2
08/05 07:00 17.3 52 7.66 7.4 15 22 1019.8 0 17.4 23.7 34.8 91.1 82.9 284.6
08/05 06:50 17.3 52 7.66 7.4 19 20 1019.5 0 17.4 23.7 34.8 91.1 82.9 284.6
08/05 06:40 17.3 51 7.51 7.1 15 20 1019.3 0 17.1 23.5 34.2 89.6 81.1 278.1
08/05 06:30 17.3 51 7.51 7.1 15 22 1019.3 0 17.1 23.5 34.2 89.6 81.1 278.1
08/05 06:20 17.4 51 7.56 7.2 15 19 1019 0 17.2 23.5 34.4 89.9 81.5 279.8
08/05 06:10 17.5 51 7.6 7.3 15 19 1018.9 0 17.3 23.5 34.5 90.2 81.9 281.1
08/05 06:00 17.5 51 7.6 7.3 15 22 1018.8 0 17.3 23.5 34.5 90.2 81.9 281.1
08/05 05:50 17.4 52 7.71 7.5 11 13 1018.4 0 17.5 23.7 34.9 91.4 83.3 286.1
08/05 05:40 17.4 52 7.71 7.5 17 20 1018.2 0 17.5 23.7 34.9 91.4 83.3 286.0
08/05 05:30 17.3 52 7.66 7.4 13 24 1018.2 0 17.4 23.6 34.8 91.0 82.8 284.2
08/05 05:20 17.2 53 7.76 7.5 17 20 1018 0 17.6 23.8 35.2 92.1 84.1 288.8
08/05 05:10 17.2 54 7.91 7.8 15 20 1017.8 0 18.0 24.0 35.7 93.5 85.9 295.3
08/05 05:00 17.3 54 7.95 7.9 15 20 1017.8 0 18.0 24.1 35.8 93.8 86.3 296.6
08/05 04:50 17.4 53 7.85 7.7 15 17 1017.6 0 17.8 23.9 35.4 92.7 85.0 291.9
08/05 04:40 17.4 54 8 8 17 20 1017.4 0 18.1 24.1 35.9 94.2 86.8 298.3
08/05 04:30 17.5 54 8.05 8.1 15 24 1017.6 0 18.2 24.2 36.1 94.6 87.3 300.2
08/05 04:20 17.5 54 8.05 8.1 19 22 1017.2 0 18.2 24.1 36.1 94.5 87.3 300.1
08/05 04:10 17.6 54 8.1 8.2 20 24 1017.2 0 18.3 24.2 36.2 94.9 87.8 301.8
08/05 04:00 17.7 54 8.15 8.3 15 20 1017.3 0 18.4 24.3 36.4 95.3 88.3 303.7
08/05 03:50 17.9 54 8.24 8.5 15 19 1017.2 0 18.6 24.3 36.6 96.0 89.2 306.8
08/05 03:40 18.1 53 8.19 8.4 15 19 1017.2 0 18.5 24.2 36.3 95.2 88.4 303.8
08/05 03:30 18 54 8.29 8.6 15 20 1017.1 0 18.7 24.4 36.8 96.3 89.7 308.5
08/05 03:20 18.1 55 8.5 8.9 15 19 1017.2 0 19.2 24.7 37.5 98.3 92.2 317.3
08/05 03:10 18.2 54 8.39 8.7 13 17 1016.9 0 18.9 24.5 37.0 97.1 90.7 312.0
08/05 03:00 18.3 54 8.44 8.8 13 20 1017 0 19.0 24.5 37.2 97.5 91.2 313.8
08/05 02:50 18.3 55 8.6 9.1 11 15 1017 0 19.4 24.8 37.8 99.1 93.2 320.8
08/05 02:40 18.5 54 8.54 9 15 19 1017 0 19.2 24.6 37.5 98.2 92.2 317.4
08/05 02:30 18.5 54 8.54 9 13 19 1016.9 0 19.2 24.6 37.5 98.2 92.2 317.3
08/05 02:20 18.5 55 8.7 9.3 11 15 1016.9 0 19.6 24.9 38.1 99.8 94.2 324.3
08/05 02:10 18.6 55 8.75 9.4 9 11 1017 0 19.7 24.9 38.2 100.2 94.7 326.1
08/05 02:00 18.8 54 8.7 9.3 9 15 1017 0 19.6 24.8 37.9 99.5 93.8 323.1
08/05 01:50 19 54 8.8 9.5 11 15 1016.8 0 19.8 24.9 38.2 100.2 94.8 326.6
08/05 01:40 19.1 55 9.02 9.9 9 13 1016.8 0 20.2 25.2 39.0 102.3 97.4 335.8
08/05 01:30 19 56 9.13 10 9 15 1016.9 0 20.5 25.4 39.5 103.5 99.0 341.1
08/05 01:20 18.8 57 9.18 10.1 7 9 1016.7 0 20.6 25.5 39.7 104.3 99.8 344.1
08/05 01:10 18.8 58 9.34 10.4 9 11 1016.7 0 20.9 25.8 40.4 105.9 101.8 351.2
08/05 01:00 19.1 57 9.34 10.4 9 13 1017 0 20.9 25.7 40.2 105.6 101.5 349.9
08/05 00:50 19.6 56 9.45 10.6 7 9 1016.9 0 21.1 25.7 40.4 106.0 102.2 352.6
08/05 00:40 19.6 56 9.45 10.6 9 11 1017 0 21.1 25.7 40.4 106.0 102.2 352.6
08/05 00:30 19.4 59 9.84 11.2 9 13 1017 0 21.9 26.4 42.0 110.3 107.4 370.8
08/05 00:20 19.3 60 9.95 11.3 9 9 1017 0 22.2 26.6 42.5 111.6 109.0 376.3
08/05 00:10 19.3 62 10.28 11.8 7 9 1017.1 0 22.9 27.1 43.8 115.1 113.3 391.2
08/05 00:00 19 64 10.43 12 6 9 1017.2 0 23.2 27.4 44.5 117.1 115.7 399.6
07/05 23:50 19.8 62 10.59 12.3 6 6 1017.1 0 23.5 27.4 44.7 117.6 116.6 402.9
07/05 23:40 20.2 60 10.49 12.2 7 7 1017.2 0 23.3 27.2 44.1 116.0 114.7 396.3
07/05 23:30 20.5 58 10.32 12 9 13 1017.3 0 22.9 26.8 43.3 113.8 112.1 387.2
07/05 23:20 20.3 60 10.55 12.3 7 9 1017.2 0 23.4 27.2 44.3 116.5 115.3 398.5
07/05 23:10 20.5 61 10.85 12.7 9 9 1017.4 0 24.0 27.7 45.4 119.4 118.9 411.2
07/05 23:00 19 74 12.06 14.3 2 11 1017.6 0 26.7 30.2 51.3 135.1 137.7 476.7
07/05 22:50 19.3 73 12.11 14.3 0 0 1017.4 0 26.8 30.1 51.3 135.1 137.9 477.2
07/05 22:40 20.1 70 12.17 14.5 0 0 1017.4 0 26.8 30.0 51.0 134.4 137.3 475.1
07/05 22:30 20.6 68 12.17 14.5 7 11 1017.5 0 26.8 29.8 50.7 133.5 136.4 472.1
07/05 22:20 21.3 65 12.11 14.5 9 9 1017.2 0 26.6 29.4 50.0 131.7 134.3 465.0
07/05 22:10 21.7 63 12.02 14.4 7 9 1017.3 0 26.4 29.2 49.4 130.0 132.4 458.5
07/05 22:00 22 63 12.23 14.6 7 13 1017.4 0 26.8 29.4 50.0 131.8 134.7 466.5
07/05 21:50 22.2 61 11.98 14.3 7 11 1017.2 0 26.3 28.9 48.9 128.8 131.0 453.7
07/05 21:40 22.4 61 12.11 14.5 7 9 1017.3 0 26.6 29.1 49.3 129.8 132.4 458.6
07/05 21:30 22.1 65 12.69 15.2 6 9 1017.4 0 27.8 30.1 51.9 136.7 140.7 487.5
07/05 21:20 21.7 69 13.16 15.8 6 7 1017.2 0 28.8 31.1 54.1 142.6 147.9 512.4
07/05 21:10 21.9 71 13.7 16.4 6 7 1017.1 0 30.0 31.9 56.2 148.3 155.0 537.2
07/05 21:00 21.6 77 14.6 17.4 4 9 1017.1 0 31.9 33.6 60.3 159.3 168.4 584.0
07/05 20:50 21.1 79 14.55 17.3 0 0 1017 0 31.8 33.7 60.5 159.7 168.8 585.2
07/05 20:40 20.9 82 14.93 17.7 0 0 1016.9 0 32.7 34.5 62.4 164.6 174.8 606.1
07/05 20:30 21.5 79 14.9 17.7 0 0 1016.8 0 32.5 34.2 61.7 163.0 172.9 599.8
07/05 20:20 21.9 76 14.66 17.5 0 0 1016.6 0 32.0 33.6 60.4 159.3 168.5 584.5
07/05 20:10 22.7 74 14.95 17.8 0 0 1016.5 0 32.5 33.8 61.0 161.0 170.9 592.9

Last Refresh: 08-May-2026 12:10:21

Bureau of Meteorology